Time,TemperatureF,DewpointF,PressureIn,WindDirection,WindDirectionDegrees,WindSpeedMPH,WindSpeedGustMPH,Humidity,HourlyPrecipIn,Conditions,Clouds,dailyrainin,SolarRadiationWatts/m^2,SoftwareType,DateUTC
2013-04-30 00:01:00,33.0,22.0,-100.00,South,188,4.0,9.0,63,0.00,,,0.00,0.000000,,2013-04-30 07:01:00,
2013-04-30 00:11:00,33.0,22.0,-100.00,South,188,4.0,9.0,63,0.00,,,0.00,0.000000,,2013-04-30 07:11:00,
2013-04-30 00:21:00,33.0,22.0,-100.00,South,188,4.0,9.0,63,0.00,,,0.00,0.000000,,2013-04-30 07:21:00,
2013-04-30 00:31:00,31.0,21.0,-100.00,SSW,192,4.0,9.0,66,0.00,,,0.00,0.000000,,2013-04-30 07:31:00,
2013-04-30 00:52:00,31.0,21.0,-100.00,SSW,192,4.0,9.0,66,0.00,,,0.00,0.000000,,2013-04-30 07:52:00,
2013-04-30 01:02:00,31.0,21.0,-100.00,SSW,192,4.0,9.0,66,0.00,,,0.00,0.000000,,2013-04-30 08:02:00,
2013-04-30 01:11:00,31.0,21.0,-100.00,SSW,192,4.0,9.0,66,0.00,,,0.00,0.000000,,2013-04-30 08:11:00,
2013-04-30 01:21:00,31.0,21.0,-100.00,SSW,192,4.0,9.0,66,0.00,,,0.00,0.000000,,2013-04-30 08:21:00,
2013-04-30 01:31:00,29.0,22.0,-100.00,SSW,196,5.0,7.0,74,0.00,,,0.00,0.000000,,2013-04-30 08:31:00,
2013-04-30 01:52:00,29.0,22.0,-100.00,SSW,196,5.0,7.0,74,0.00,,,0.00,0.000000,,2013-04-30 08:52:00,
2013-04-30 02:01:00,29.0,22.0,-100.00,SSW,196,5.0,7.0,74,0.00,,,0.00,0.000000,,2013-04-30 09:01:00,
2013-04-30 02:11:00,29.0,22.0,-100.00,SSW,196,5.0,7.0,74,0.00,,,0.00,0.000000,,2013-04-30 09:11:00,
2013-04-30 02:21:00,29.0,22.0,-100.00,SSW,196,5.0,7.0,74,0.00,,,0.00,0.000000,,2013-04-30 09:21:00,
2013-04-30 02:31:00,30.0,19.0,-100.00,SSW,192,5.0,10.0,64,0.00,,,0.00,0.000000,,2013-04-30 09:31:00,
2013-04-30 03:03:00,30.0,19.0,-100.00,SSW,192,5.0,10.0,64,0.00,,,0.00,0.000000,,2013-04-30 10:03:00,
2013-04-30 03:11:00,30.0,19.0,-100.00,SSW,192,5.0,10.0,64,0.00,,,0.00,0.000000,,2013-04-30 10:11:00,
2013-04-30 03:22:00,30.0,19.0,-100.00,SSW,192,5.0,10.0,64,0.00,,,0.00,0.000000,,2013-04-30 10:22:00,
2013-04-30 03:31:00,29.0,18.0,-100.00,East,82,2.0,9.0,63,0.00,,,0.00,0.000000,,2013-04-30 10:31:00,
2013-04-30 04:01:00,29.0,18.0,-100.00,East,82,2.0,9.0,63,0.00,,,0.00,0.000000,,2013-04-30 11:01:00,
2013-04-30 04:11:00,29.0,18.0,-100.00,East,82,2.0,9.0,63,0.00,,,0.00,0.000000,,2013-04-30 11:11:00,
2013-04-30 04:21:00,29.0,18.0,-100.00,East,82,2.0,9.0,63,0.00,,,0.00,0.000000,,2013-04-30 11:21:00,
2013-04-30 06:31:00,27.0,19.0,-100.00,South,191,2.0,6.0,70,-99.99,,,0.00,6.000000,,2013-04-30 13:31:00,
2013-04-30 07:02:00,27.0,19.0,-100.00,South,191,2.0,6.0,70,-99.99,,,0.00,6.000000,,2013-04-30 14:02:00,
2013-04-30 07:11:00,27.0,19.0,-100.00,South,191,2.0,6.0,70,-99.99,,,0.00,6.000000,,2013-04-30 14:11:00,
2013-04-30 07:21:00,27.0,19.0,-100.00,South,191,2.0,6.0,70,-99.99,,,0.00,6.000000,,2013-04-30 14:21:00,
2013-04-30 07:31:00,31.0,22.0,-100.00,SW,230,2.0,4.0,68,0.00,,,0.00,86.000000,,2013-04-30 14:31:00,
2013-04-30 07:52:00,31.0,22.0,-100.00,SW,230,2.0,4.0,68,0.00,,,0.00,86.000000,,2013-04-30 14:52:00,
2013-04-30 08:01:00,31.0,22.0,-100.00,SW,230,2.0,4.0,68,0.00,,,0.00,86.000000,,2013-04-30 15:01:00,
2013-04-30 08:11:00,31.0,22.0,-100.00,SW,230,2.0,4.0,68,0.00,,,0.00,86.000000,,2013-04-30 15:11:00,
2013-04-30 08:21:00,31.0,22.0,-100.00,SW,230,2.0,4.0,68,0.00,,,0.00,86.000000,,2013-04-30 15:21:00,
2013-04-30 08:31:00,35.0,20.0,-100.00,South,189,4.0,9.0,53,0.00,,,0.00,338.000000,,2013-04-30 15:31:00,
2013-04-30 08:52:00,35.0,20.0,-100.00,South,189,4.0,9.0,53,0.00,,,0.00,338.000000,,2013-04-30 15:52:00,
2013-04-30 09:02:00,35.0,20.0,-100.00,South,189,4.0,9.0,53,0.00,,,0.00,338.000000,,2013-04-30 16:02:00,
2013-04-30 09:12:00,35.0,20.0,-100.00,South,189,4.0,9.0,53,0.00,,,0.00,338.000000,,2013-04-30 16:12:00,
2013-04-30 09:22:00,35.0,20.0,-100.00,South,189,4.0,9.0,53,0.00,,,0.00,338.000000,,2013-04-30 16:22:00,
2013-04-30 09:31:00,39.0,18.0,-100.00,SE,138,4.0,10.0,43,0.00,,,0.00,565.000000,,2013-04-30 16:31:00,
2013-04-30 09:52:00,39.0,18.0,-100.00,SE,138,4.0,10.0,43,0.00,,,0.00,565.000000,,2013-04-30 16:52:00,
2013-04-30 10:02:00,39.0,18.0,-100.00,SE,138,4.0,10.0,43,0.00,,,0.00,565.000000,,2013-04-30 17:02:00,
2013-04-30 10:12:00,39.0,18.0,-100.00,SE,138,4.0,10.0,43,0.00,,,0.00,565.000000,,2013-04-30 17:12:00,
2013-04-30 10:22:00,39.0,18.0,-100.00,SE,138,4.0,10.0,43,0.00,,,0.00,565.000000,,2013-04-30 17:22:00,
2013-04-30 10:31:00,42.0,18.0,-100.00,ENE,67,4.0,10.0,37,0.00,,,0.00,784.000000,,2013-04-30 17:31:00,
2013-04-30 10:52:00,42.0,18.0,-100.00,ENE,67,4.0,10.0,37,0.00,,,0.00,784.000000,,2013-04-30 17:52:00,
2013-04-30 11:01:00,42.0,18.0,-100.00,ENE,67,4.0,10.0,37,0.00,,,0.00,784.000000,,2013-04-30 18:01:00,
2013-04-30 11:11:00,42.0,18.0,-100.00,ENE,67,4.0,10.0,37,0.00,,,0.00,784.000000,,2013-04-30 18:11:00,
2013-04-30 11:22:00,42.0,18.0,-100.00,ENE,67,4.0,10.0,37,0.00,,,0.00,784.000000,,2013-04-30 18:22:00,
2013-04-30 11:31:00,45.0,18.0,-100.00,WSW,244,5.0,12.0,33,0.00,,,0.00,802.000000,,2013-04-30 18:31:00,
2013-04-30 11:52:00,45.0,18.0,-100.00,WSW,244,5.0,12.0,33,0.00,,,0.00,802.000000,,2013-04-30 18:52:00,
2013-04-30 12:01:00,45.0,18.0,-100.00,WSW,244,5.0,12.0,33,0.00,,,0.00,802.000000,,2013-04-30 19:01:00,
2013-04-30 12:11:00,45.0,18.0,-100.00,WSW,244,5.0,12.0,33,0.00,,,0.00,802.000000,,2013-04-30 19:11:00,
2013-04-30 12:21:00,45.0,18.0,-100.00,WSW,244,5.0,12.0,33,0.00,,,0.00,802.000000,,2013-04-30 19:21:00,
2013-04-30 12:31:00,48.0,19.0,-100.00,East,89,5.0,11.0,31,0.00,,,0.00,912.000000,,2013-04-30 19:31:00,
2013-04-30 12:52:00,48.0,19.0,-100.00,East,89,5.0,11.0,31,0.00,,,0.00,912.000000,,2013-04-30 19:52:00,
2013-04-30 13:02:00,48.0,19.0,-100.00,East,89,5.0,11.0,31,0.00,,,0.00,912.000000,,2013-04-30 20:02:00,
2013-04-30 13:11:00,48.0,19.0,-100.00,East,89,5.0,11.0,31,0.00,,,0.00,912.000000,,2013-04-30 20:11:00,
2013-04-30 13:21:00,48.0,19.0,-100.00,East,89,5.0,11.0,31,0.00,,,0.00,912.000000,,2013-04-30 20:21:00,
2013-04-30 13:31:00,49.0,17.0,-100.00,East,84,4.0,11.0,28,0.00,,,0.00,847.000000,,2013-04-30 20:31:00,
2013-04-30 13:52:00,49.0,17.0,-100.00,East,84,4.0,11.0,28,0.00,,,0.00,847.000000,,2013-04-30 20:52:00,
2013-04-30 14:01:00,49.0,17.0,-100.00,East,84,4.0,11.0,28,0.00,,,0.00,847.000000,,2013-04-30 21:01:00,
2013-04-30 14:11:00,49.0,17.0,-100.00,East,84,4.0,11.0,28,0.00,,,0.00,847.000000,,2013-04-30 21:11:00,
2013-04-30 14:22:00,49.0,17.0,-100.00,East,84,4.0,11.0,28,0.00,,,0.00,847.000000,,2013-04-30 21:22:00,
2013-04-30 14:31:00,50.0,16.0,-100.00,NNE,31,5.0,13.0,25,0.00,,,0.00,835.000000,,2013-04-30 21:31:00,
2013-04-30 14:53:00,50.0,16.0,-100.00,NNE,31,5.0,13.0,25,0.00,,,0.00,835.000000,,2013-04-30 21:53:00,
2013-04-30 15:02:00,50.0,16.0,-100.00,NNE,31,5.0,13.0,25,0.00,,,0.00,835.000000,,2013-04-30 22:02:00,
2013-04-30 15:12:00,50.0,16.0,-100.00,NNE,31,5.0,13.0,25,0.00,,,0.00,835.000000,,2013-04-30 22:12:00,
2013-04-30 15:22:00,50.0,16.0,-100.00,NNE,31,5.0,13.0,25,0.00,,,0.00,835.000000,,2013-04-30 22:22:00,
2013-04-30 15:31:00,51.0,20.0,-100.00,NNW,348,5.0,12.0,29,0.00,,,0.00,848.000000,,2013-04-30 22:31:00,
2013-04-30 15:53:00,51.0,20.0,-100.00,NNW,348,5.0,12.0,29,0.00,,,0.00,848.000000,,2013-04-30 22:53:00,
2013-04-30 16:02:00,51.0,20.0,-100.00,NNW,348,5.0,12.0,29,0.00,,,0.00,848.000000,,2013-04-30 23:02:00,
2013-04-30 16:11:00,51.0,20.0,-100.00,NNW,348,5.0,12.0,29,0.00,,,0.00,848.000000,,2013-04-30 23:11:00,
2013-04-30 16:21:00,51.0,20.0,-100.00,NNW,348,5.0,12.0,29,0.00,,,0.00,848.000000,,2013-04-30 23:21:00,
2013-04-30 16:31:00,50.0,17.0,-100.00,North,351,5.0,16.0,27,0.00,,,0.00,701.000000,,2013-04-30 23:31:00,
2013-04-30 16:52:00,50.0,17.0,-100.00,North,351,5.0,16.0,27,0.00,,,0.00,701.000000,,2013-04-30 23:52:00,
2013-04-30 17:01:00,50.0,17.0,-100.00,North,351,5.0,16.0,27,0.00,,,0.00,701.000000,,2013-05-01 00:01:00,
2013-04-30 17:11:00,50.0,17.0,-100.00,North,351,5.0,16.0,27,0.00,,,0.00,701.000000,,2013-05-01 00:11:00,
2013-04-30 17:21:00,50.0,17.0,-100.00,North,351,5.0,16.0,27,0.00,,,0.00,701.000000,,2013-05-01 00:21:00,
2013-04-30 17:31:00,49.0,17.0,-100.00,NNE,21,5.0,12.0,28,0.00,,,0.00,522.000000,,2013-05-01 00:31:00,
2013-04-30 17:52:00,49.0,17.0,-100.00,NNE,21,5.0,12.0,28,0.00,,,0.00,522.000000,,2013-05-01 00:52:00,
2013-04-30 18:01:00,49.0,17.0,-100.00,NNE,21,5.0,12.0,28,0.00,,,0.00,522.000000,,2013-05-01 01:01:00,
2013-04-30 18:11:00,49.0,17.0,-100.00,NNE,21,5.0,12.0,28,0.00,,,0.00,522.000000,,2013-05-01 01:11:00,
2013-04-30 18:21:00,49.0,17.0,-100.00,NNE,21,5.0,12.0,28,0.00,,,0.00,522.000000,,2013-05-01 01:21:00,
2013-04-30 18:31:00,47.0,18.0,-100.00,North,3,5.0,11.0,31,0.00,,,-99.99,326.000000,,2013-05-01 01:31:00,
2013-04-30 18:52:00,47.0,18.0,-100.00,North,3,5.0,11.0,31,0.00,,,-99.99,326.000000,,2013-05-01 01:52:00,
2013-04-30 19:02:00,47.0,18.0,-100.00,North,3,5.0,11.0,31,0.00,,,-99.99,326.000000,,2013-05-01 02:02:00,
2013-04-30 19:11:00,47.0,18.0,-100.00,North,3,5.0,11.0,31,0.00,,,-99.99,326.000000,,2013-05-01 02:11:00,
2013-04-30 19:21:00,47.0,18.0,-100.00,North,3,5.0,11.0,31,0.00,,,-99.99,326.000000,,2013-05-01 02:21:00,
2013-04-30 19:31:00,42.0,19.0,-100.00,North,1,2.0,12.0,40,0.00,,,-99.99,99.000000,,2013-05-01 02:31:00,
2013-04-30 19:52:00,42.0,19.0,-100.00,North,1,2.0,12.0,40,0.00,,,-99.99,99.000000,,2013-05-01 02:52:00,
2013-04-30 20:01:00,42.0,19.0,-100.00,North,1,2.0,12.0,40,0.00,,,-99.99,99.000000,,2013-05-01 03:01:00,
2013-04-30 20:11:00,42.0,19.0,-100.00,North,1,2.0,12.0,40,0.00,,,-99.99,99.000000,,2013-05-01 03:11:00,
2013-04-30 20:21:00,42.0,19.0,-100.00,North,1,2.0,12.0,40,0.00,,,-99.99,99.000000,,2013-05-01 03:21:00,
2013-04-30 20:31:00,37.0,21.0,-100.00,NE,43,2.0,5.0,52,0.00,,,-99.99,9.000000,,2013-05-01 03:31:00,
2013-04-30 20:53:00,37.0,21.0,-100.00,NE,43,2.0,5.0,52,0.00,,,-99.99,9.000000,,2013-05-01 03:53:00,
2013-04-30 21:03:00,37.0,21.0,-100.00,NE,43,2.0,5.0,52,0.00,,,-99.99,9.000000,,2013-05-01 04:03:00,
2013-04-30 21:12:00,37.0,21.0,-100.00,NE,43,2.0,5.0,52,0.00,,,-99.99,9.000000,,2013-05-01 04:12:00,
2013-04-30 21:22:00,37.0,21.0,-100.00,NE,43,2.0,5.0,52,0.00,,,-99.99,9.000000,,2013-05-01 04:22:00,
2013-04-30 21:31:00,35.0,21.0,-100.00,NW,321,1.0,3.0,56,0.00,,,-99.99,0.000000,,2013-05-01 04:31:00,
2013-04-30 21:52:00,35.0,21.0,-100.00,NW,321,1.0,3.0,56,0.00,,,-99.99,0.000000,,2013-05-01 04:52:00,
2013-04-30 22:02:00,35.0,21.0,-100.00,NW,321,1.0,3.0,56,0.00,,,-99.99,0.000000,,2013-05-01 05:02:00,
2013-04-30 22:11:00,35.0,21.0,-100.00,NW,321,1.0,3.0,56,0.00,,,-99.99,0.000000,,2013-05-01 05:11:00,
2013-04-30 22:21:00,35.0,21.0,-100.00,NW,321,1.0,3.0,56,0.00,,,-99.99,0.000000,,2013-05-01 05:21:00,
2013-04-30 22:31:00,34.0,21.0,-100.00,ESE,114,1.0,2.0,59,0.00,,,0.00,0.000000,,2013-05-01 05:31:00,
2013-04-30 22:52:00,34.0,21.0,-100.00,ESE,114,1.0,2.0,59,0.00,,,0.00,0.000000,,2013-05-01 05:52:00,
2013-04-30 23:02:00,34.0,21.0,-100.00,ESE,114,1.0,2.0,59,0.00,,,0.00,0.000000,,2013-05-01 06:02:00,
2013-04-30 23:11:00,34.0,21.0,-100.00,ESE,114,1.0,2.0,59,0.00,,,0.00,0.000000,,2013-05-01 06:11:00,
2013-04-30 23:22:00,34.0,21.0,-100.00,ESE,114,1.0,2.0,59,0.00,,,0.00,0.000000,,2013-05-01 06:22:00,
2013-04-30 23:31:00,33.0,20.0,-100.00,South,188,2.0,3.0,59,0.00,,,0.00,0.000000,,2013-05-01 06:31:00,
2013-04-30 23:52:00,33.0,20.0,-100.00,South,188,2.0,3.0,59,0.00,,,0.00,0.000000,,2013-05-01 06:52:00,